Time;durP1;ratioP1;P1;durP2;ratioP2;P2;SDS_P1;SDS_P2;PMS_P1;PMS_P2;Temp;Humidity;BMP_temperature;BMP_pressure;BME280_temperature;BME280_humidity;BME280_pressure;Samples;Min_cycle;Max_cycle;Signal;HPM_P1;HPM_P2
2023/03/14 00:01:54;;;;;;;9.65;1.67;;;;;;;10.10;100.00;98829.19;5280401;28;20489;-72
2023/03/14 00:04:25;;;;;;;7.50;1.80;;;;;;;10.07;100.00;98821.53;5286105;28;20735;-73
2023/03/14 00:06:56;;;;;;;8.40;2.45;;;;;;;10.02;100.00;98822.00;5281520;28;20033;-72
2023/03/14 00:09:29;;;;;;;8.00;1.50;;;;;;;9.97;100.00;98821.69;5292497;28;20083;-72
2023/03/14 00:12:02;;;;;;;5.40;1.42;;;;;;;9.96;100.00;98809.34;5287880;28;20037;-72
2023/03/14 00:14:34;;;;;;;6.43;1.40;;;;;;;9.94;100.00;98814.00;5288679;28;20028;-72
2023/03/14 00:17:05;;;;;;;7.22;1.50;;;;;;;9.88;100.00;98816.50;5288675;28;20024;-72
2023/03/14 00:19:36;;;;;;;6.63;1.20;;;;;;;9.82;100.00;98825.97;5286043;28;20037;-72
2023/03/14 00:22:08;;;;;;;7.70;1.40;;;;;;;9.81;100.00;98824.28;5283836;28;20027;-72
2023/03/14 00:24:39;;;;;;;6.43;1.08;;;;;;;9.74;100.00;98831.25;5281923;28;20025;-72
2023/03/14 00:27:10;;;;;;;7.07;1.02;;;;;;;9.68;100.00;98842.56;5288349;28;20052;-72
2023/03/14 00:29:42;;;;;;;7.95;1.55;;;;;;;9.68;100.00;98843.38;5280313;28;20076;-72
2023/03/14 00:32:14;;;;;;;5.25;1.02;;;;;;;9.69;100.00;98836.25;5283298;28;20747;-72
2023/03/14 00:34:45;;;;;;;7.22;1.23;;;;;;;9.68;100.00;98840.72;5279610;28;20029;-72
2023/03/14 00:37:16;;;;;;;7.30;1.50;;;;;;;9.68;100.00;98843.38;5279635;28;20029;-72
2023/03/14 00:39:47;;;;;;;6.60;1.60;;;;;;;9.66;100.00;98850.69;5287272;28;20032;-72
2023/03/14 00:42:19;;;;;;;6.63;1.23;;;;;;;9.76;100.00;98830.13;5289870;28;20032;-72
2023/03/14 00:44:50;;;;;;;6.20;1.27;;;;;;;9.75;100.00;98839.09;5300114;28;20084;-72
2023/03/14 00:47:21;;;;;;;7.22;1.30;;;;;;;9.76;100.00;98845.25;5281899;28;20031;-72
2023/03/14 00:49:53;;;;;;;7.88;1.38;;;;;;;9.73;100.00;98845.59;5286332;28;20031;-72
2023/03/14 00:52:24;;;;;;;6.35;1.20;;;;;;;9.71;100.00;98850.25;5285988;28;20060;-72
2023/03/14 00:54:55;;;;;;;6.47;1.23;;;;;;;9.71;100.00;98856.38;5277865;28;20030;-72
2023/03/14 00:57:26;;;;;;;6.45;1.08;;;;;;;9.68;100.00;98842.56;5279183;28;20089;-72
2023/03/14 00:59:58;;;;;;;9.70;1.75;;;;;;;9.71;100.00;98836.94;5283962;28;20086;-72
2023/03/14 01:02:29;;;;;;;7.15;1.65;;;;;;;9.70;100.00;98830.75;5278118;28;20024;-72
2023/03/14 01:05:00;;;;;;;7.65;2.08;;;;;;;9.70;100.00;98835.25;5286783;28;20027;-72
2023/03/14 01:07:32;;;;;;;8.30;1.45;;;;;;;9.67;100.00;98843.56;5279389;28;20047;-72
2023/03/14 01:10:05;;;;;;;7.35;1.40;;;;;;;9.66;100.00;98828.56;5283925;28;20024;-72
2023/03/14 01:12:37;;;;;;;6.75;1.17;;;;;;;9.66;100.00;98840.06;5281764;28;20548;-72
2023/03/14 01:15:08;;;;;;;5.15;1.10;;;;;;;9.66;100.00;98831.25;5282026;28;20060;-72
2023/03/14 01:17:40;;;;;;;4.72;1.00;;;;;;;9.65;100.00;98829.59;5280309;28;20060;-72
2023/03/14 01:20:13;;;;;;;6.35;1.33;;;;;;;9.60;100.00;98836.19;5283758;28;20155;-72
2023/03/14 01:22:44;;;;;;;7.35;1.77;;;;;;;9.66;100.00;98828.56;5279633;28;20122;-72
2023/03/14 01:25:16;;;;;;;6.38;1.58;;;;;;;9.58;100.00;98829.38;5280406;28;20456;-72
2023/03/14 01:27:48;;;;;;;7.03;1.15;;;;;;;9.58;100.00;98827.53;5285366;28;20035;-72
2023/03/14 01:30:19;;;;;;;7.22;1.20;;;;;;;9.56;100.00;98820.72;5291635;28;20020;-72
2023/03/14 01:32:50;;;;;;;8.23;1.90;;;;;;;9.56;100.00;98810.91;5289116;28;20777;-72
2023/03/14 01:35:22;;;;;;;7.18;1.45;;;;;;;9.54;100.00;98820.06;5288372;28;20119;-72
2023/03/14 01:37:53;;;;;;;7.53;1.73;;;;;;;9.53;100.00;98819.22;5287239;28;20032;-72
2023/03/14 01:40:24;;;;;;;5.80;1.40;;;;;;;9.55;100.00;98811.91;5286250;28;20028;-72
2023/03/14 01:42:57;;;;;;;5.13;0.88;;;;;;;9.53;100.00;98810.38;5285193;28;20081;-72
2023/03/14 01:46:06;;;;;;;6.47;1.30;;;;;;;9.59;100.00;98807.09;5286176;28;20032;-72
2023/03/14 01:48:44;;;;;;;4.53;1.27;;;;;;;9.49;100.00;98801.06;5283540;28;20028;-72
2023/03/14 01:51:28;;;;;;;6.93;1.65;;;;;;;9.54;100.00;98790.78;5295293;28;20034;-72
2023/03/14 01:54:20;;;;;;;4.95;1.00;;;;;;;9.54;100.00;98786.28;5305201;28;20040;-72
2023/03/14 01:57:02;;;;;;;8.18;1.45;;;;;;;9.52;100.00;98784.78;5287537;28;20107;-73
2023/03/14 01:59:35;;;;;;;7.13;1.50;;;;;;;9.53;100.00;98786.41;5285940;28;20024;-73
2023/03/14 02:02:09;;;;;;;8.05;1.58;;;;;;;9.50;100.00;98792.91;5288755;28;20027;-72
2023/03/14 02:04:41;;;;;;;7.05;1.50;;;;;;;9.50;100.00;98781.44;5284104;28;20150;-73
2023/03/14 02:07:21;;;;;;;10.52;1.48;;;;;;;9.48;100.00;98780.78;5292672;28;20028;-73
2023/03/14 02:09:53;;;;;;;8.90;1.80;;;;;;;9.49;100.00;98777.97;5291220;28;20115;-72
2023/03/14 02:12:25;;;;;;;10.05;1.60;;;;;;;9.51;100.00;98781.28;5303315;28;20015;-73
2023/03/14 02:14:56;;;;;;;8.32;1.70;;;;;;;9.55;100.00;98773.78;5297757;28;20020;-72
2023/03/14 02:17:27;;;;;;;10.70;2.45;;;;;;;9.50;100.00;98779.59;5288360;28;20097;-73
2023/03/14 02:20:36;;;;;;;8.35;1.85;;;;;;;9.53;100.00;98770.44;5292883;28;20020;-72
2023/03/14 02:23:08;;;;;;;8.63;1.67;;;;;;;9.48;100.00;98781.59;5299441;28;20037;-72
2023/03/14 02:25:51;;;;;;;8.70;2.08;;;;;;;9.48;100.00;98770.94;5289200;28;20499;-73
2023/03/14 02:28:23;;;;;;;11.85;2.47;;;;;;;9.49;100.00;98780.63;5298883;28;20028;-73
2023/03/14 02:30:54;;;;;;;5.97;1.60;;;;;;;9.48;100.00;98773.59;5289667;28;20052;-73
2023/03/14 02:33:26;;;;;;;10.68;2.25;;;;;;;9.46;100.00;98770.28;5286532;28;20413;-72
2023/03/14 02:36:04;;;;;;;8.88;2.55;;;;;;;9.44;100.00;98752.81;5292492;28;20041;-78
2023/03/14 02:38:58;;;;;;;7.85;1.77;;;;;;;9.39;100.00;98753.28;5282315;28;20028;-78
2023/03/14 02:41:29;;;;;;;9.15;1.65;;;;;;;9.33;100.00;98751.28;5295418;28;20024;-79
2023/03/14 02:44:01;;;;;;;9.68;2.50;;;;;;;9.28;100.00;98758.88;5293886;28;20098;-79
2023/03/14 02:46:32;;;;;;;13.18;2.17;;;;;;;9.29;100.00;98757.91;5289940;28;20020;-79
2023/03/14 02:49:16;;;;;;;10.27;1.95;;;;;;;9.30;100.00;98764.88;5282140;28;20474;-79
2023/03/14 02:51:47;;;;;;;10.63;2.08;;;;;;;9.29;100.00;98756.06;5291185;28;20028;-78
2023/03/14 02:54:20;;;;;;;7.97;1.65;;;;;;;9.34;100.00;98759.09;5297725;28;20027;-78
2023/03/14 02:56:51;;;;;;;11.10;2.10;;;;;;;9.34;100.00;98758.25;5287435;28;20165;-79
2023/03/14 02:59:22;;;;;;;8.77;1.67;;;;;;;9.29;100.00;98763.22;5294729;28;20031;-73
2023/03/14 03:01:54;;;;;;;11.48;2.53;;;;;;;9.34;100.00;98767.09;5290223;28;20024;-73
2023/03/14 03:04:25;;;;;;;12.32;3.08;;;;;;;9.32;100.00;98768.22;5290517;28;20107;-73
2023/03/14 03:06:56;;;;;;;9.40;1.80;;;;;;;9.33;100.00;98765.41;5304175;28;20034;-73
2023/03/14 03:09:28;;;;;;;8.65;1.77;;;;;;;9.34;100.00;98755.59;5292679;28;20032;-73
2023/03/14 03:11:59;;;;;;;10.32;1.67;;;;;;;9.37;100.00;98772.06;5283025;28;20052;-73
2023/03/14 03:14:30;;;;;;;9.30;1.95;;;;;;;9.36;100.00;98767.75;5285388;28;20386;-73
2023/03/14 03:17:01;;;;;;;10.45;2.30;;;;;;;9.39;100.00;98769.25;5291259;28;20121;-73
2023/03/14 03:19:34;;;;;;;8.38;1.63;;;;;;;9.37;100.00;98772.06;5292394;28;20512;-73
2023/03/14 03:22:06;;;;;;;8.30;2.10;;;;;;;9.41;100.00;98767.25;5298362;28;20390;-73
2023/03/14 03:24:37;;;;;;;8.48;1.80;;;;;;;9.40;100.00;98754.97;5293199;28;20114;-73
2023/03/14 03:27:09;;;;;;;9.35;1.60;;;;;;;9.42;100.00;98760.97;5286667;28;20122;-73
2023/03/14 03:29:40;;;;;;;9.32;1.63;;;;;;;9.38;100.00;98760.44;5291426;28;20582;-73
2023/03/14 03:32:11;;;;;;;6.80;1.50;;;;;;;9.36;100.00;98754.44;5297408;28;20040;-73
2023/03/14 03:34:42;;;;;;;9.75;1.67;;;;;;;9.36;100.00;98750.97;5283895;28;20068;-73
2023/03/14 03:37:14;;;;;;;7.05;1.40;;;;;;;9.35;100.00;98759.94;5298823;28;20087;-73
2023/03/14 03:39:45;;;;;;;9.77;1.48;;;;;;;9.36;100.00;98756.28;5284885;28;20111;-73
2023/03/14 03:42:17;;;;;;;6.30;1.40;;;;;;;9.34;100.00;98752.91;5288641;28;20390;-73
2023/03/14 03:44:49;;;;;;;7.55;1.20;;;;;;;9.36;100.00;98749.13;5284010;28;20107;-73
2023/03/14 03:47:20;;;;;;;6.85;1.55;;;;;;;9.33;100.00;98738.78;5284649;28;20089;-73
2023/03/14 03:49:52;;;;;;;8.85;1.50;;;;;;;9.37;100.00;98741.97;5284258;28;20051;-73
2023/03/14 03:52:23;;;;;;;8.80;1.50;;;;;;;9.30;100.00;98746.25;5282619;28;20035;-73
2023/03/14 03:54:54;;;;;;;6.30;1.20;;;;;;;9.33;100.00;98745.94;5291424;28;20028;-73
2023/03/14 03:57:26;;;;;;;8.30;1.40;;;;;;;9.32;100.00;98746.94;5286722;28;20028;-74
2023/03/14 03:59:57;;;;;;;8.38;1.38;;;;;;;9.34;100.00;98742.28;5283223;28;20084;-73
2023/03/14 04:02:28;;;;;;;5.35;1.10;;;;;;;9.29;100.00;98736.63;5294293;28;20354;-73
2023/03/14 04:04:59;;;;;;;7.85;1.50;;;;;;;9.21;100.00;98738.25;5281591;28;20096;-70
2023/03/14 04:07:32;;;;;;;10.13;1.38;;;;;;;9.17;100.00;98734.25;5287402;28;20023;-70
2023/03/14 04:10:03;;;;;;;6.05;1.42;;;;;;;9.14;100.00;98728.41;5281713;28;20020;-72
2023/03/14 04:12:34;;;;;;;4.72;1.10;;;;;;;9.11;100.00;98734.91;5287076;28;20041;-71
2023/03/14 04:15:07;;;;;;;5.85;1.27;;;;;;;9.07;100.00;98730.03;5279624;28;20028;-71
2023/03/14 04:17:38;;;;;;;8.25;1.30;;;;;;;9.02;100.00;98731.34;5281237;28;20032;-71
2023/03/14 04:20:13;;;;;;;8.27;1.42;;;;;;;8.99;100.00;98737.00;5287791;28;20359;-71
2023/03/14 04:22:44;;;;;;;4.18;1.00;;;;;;;8.97;100.00;98725.66;5284431;28;20508;-72
2023/03/14 04:25:17;;;;;;;7.72;1.30;;;;;;;8.98;100.00;98724.69;5282692;28;20028;-72
2023/03/14 04:27:48;;;;;;;7.10;1.35;;;;;;;9.02;100.00;98735.84;5281256;28;20135;-72
2023/03/14 04:30:19;;;;;;;5.85;0.98;;;;;;;9.03;100.00;98721.53;5280830;28;21159;-71
2023/03/14 04:32:51;;;;;;;4.75;1.08;;;;;;;9.01;100.00;98729.72;5276165;28;20140;-72
2023/03/14 04:35:22;;;;;;;4.43;1.17;;;;;;;8.99;100.00;98731.69;5283069;28;20043;-72
2023/03/14 04:37:53;;;;;;;10.38;1.30;;;;;;;8.99;100.00;98725.53;5286694;28;20103;-71
2023/03/14 04:40:25;;;;;;;5.32;1.33;;;;;;;9.00;100.00;98719.22;5289443;28;20533;-72
2023/03/14 04:42:56;;;;;;;4.35;0.95;;;;;;;8.99;100.00;98718.41;5292083;28;20619;-72
2023/03/14 04:45:27;;;;;;;5.57;1.10;;;;;;;8.98;100.00;98719.38;5289753;28;20033;-72
2023/03/14 04:47:59;;;;;;;5.07;1.20;;;;;;;8.98;100.00;98722.03;5286694;28;20028;-72
2023/03/14 04:50:30;;;;;;;3.60;1.00;;;;;;;9.07;100.00;98724.72;5290307;28;20024;-71
2023/03/14 04:53:01;;;;;;;4.75;0.90;;;;;;;8.97;100.00;98722.19;5286468;28;20036;-71
2023/03/14 04:55:34;;;;;;;5.63;1.60;;;;;;;8.95;100.00;98721.50;5287467;28;20782;-71
2023/03/14 04:58:06;;;;;;;5.35;1.02;;;;;;;8.93;100.00;98727.00;5289084;28;20397;-71
2023/03/14 05:00:37;;;;;;;5.00;1.20;;;;;;;8.89;100.00;98732.78;5285364;28;20034;-71
2023/03/14 05:03:08;;;;;;;5.28;0.85;;;;;;;8.87;100.00;98727.63;5283857;28;20082;-71
2023/03/14 05:05:39;;;;;;;6.13;1.13;;;;;;;8.82;100.00;98736.09;5299623;28;20034;-71
2023/03/14 05:08:11;;;;;;;5.60;1.25;;;;;;;8.80;100.00;98731.91;5286383;28;20081;-71
2023/03/14 05:10:42;;;;;;;5.45;1.38;;;;;;;8.76;100.00;98720.78;5296351;28;20036;-71
2023/03/14 05:13:14;;;;;;;5.80;1.50;;;;;;;8.73;100.00;98725.56;5287374;28;20107;-71
2023/03/14 05:15:45;;;;;;;5.50;1.20;;;;;;;8.71;100.00;98725.72;5284783;28;20036;-71
2023/03/14 05:18:17;;;;;;;3.88;1.20;;;;;;;8.69;100.00;98725.06;5285727;28;20113;-71
2023/03/14 05:20:51;;;;;;;5.55;1.40;;;;;;;8.69;100.00;98722.41;5290153;28;20382;-71
2023/03/14 05:23:23;;;;;;;6.85;1.70;;;;;;;8.71;100.00;98719.59;5285298;28;20431;-71
2023/03/14 05:25:54;;;;;;;6.38;1.73;;;;;;;8.68;100.00;98731.34;5288279;28;20058;-73
2023/03/14 05:28:25;;;;;;;6.55;1.80;;;;;;;8.70;100.00;98721.38;5281089;28;20510;-73
2023/03/14 05:30:57;;;;;;;6.20;1.80;;;;;;;8.65;100.00;98718.38;5285645;28;20069;-73
2023/03/14 05:33:28;;;;;;;6.07;1.90;;;;;;;8.65;100.00;98710.41;5289511;28;20028;-73
2023/03/14 05:35:59;;;;;;;7.65;2.30;;;;;;;8.65;100.00;98705.09;5283809;28;20032;-72
2023/03/14 05:38:31;;;;;;;7.30;2.40;;;;;;;8.72;100.00;98714.09;5285402;28;20077;-72
2023/03/14 05:41:02;;;;;;;6.20;2.00;;;;;;;8.60;100.00;98712.69;5288784;28;20027;-72
2023/03/14 05:43:33;;;;;;;7.72;2.20;;;;;;;8.65;100.00;98707.75;5289761;28;20043;-72
2023/03/14 05:46:05;;;;;;;5.93;2.30;;;;;;;8.63;100.00;98707.91;5295267;28;20035;-72
2023/03/14 05:48:36;;;;;;;6.93;2.70;;;;;;;8.62;100.00;98706.22;5292156;28;20028;-72
2023/03/14 05:51:07;;;;;;;8.35;2.70;;;;;;;8.63;100.00;98699.94;5290099;28;20078;-72
2023/03/14 05:53:39;;;;;;;7.78;2.05;;;;;;;8.61;100.00;98699.25;5289524;28;20032;-72
2023/03/14 05:56:10;;;;;;;7.95;2.70;;;;;;;8.62;100.00;98698.25;5291896;28;20436;-72
2023/03/14 05:58:41;;;;;;;5.72;2.22;;;;;;;8.62;100.00;98702.75;5290909;28;20047;-73
2023/03/14 06:01:12;;;;;;;6.70;2.42;;;;;;;8.62;100.00;98697.44;5291427;28;20024;-73
2023/03/14 06:03:44;;;;;;;8.02;2.58;;;;;;;8.64;100.00;98695.44;5291002;28;21701;-72
2023/03/14 06:06:16;;;;;;;6.32;2.45;;;;;;;8.62;100.00;98692.94;5298880;28;20032;-72
2023/03/14 06:08:47;;;;;;;7.50;2.83;;;;;;;8.66;100.00;98693.47;5282685;28;20028;-72
2023/03/14 06:11:19;;;;;;;7.28;2.80;;;;;;;8.66;100.00;98695.28;5295457;27;20436;-72
2023/03/14 06:13:50;;;;;;;7.72;3.28;;;;;;;8.69;100.00;98701.13;5290087;28;20406;-71
2023/03/14 06:16:22;;;;;;;7.88;3.08;;;;;;;8.69;100.00;98702.97;5305152;28;20038;-72
2023/03/14 06:18:53;;;;;;;7.65;3.50;;;;;;;8.64;100.00;98700.75;5296634;28;20371;-72
2023/03/14 06:21:25;;;;;;;8.40;3.20;;;;;;;8.66;100.00;98704.09;5291841;28;20383;-71
2023/03/14 06:23:56;;;;;;;8.35;3.53;;;;;;;8.63;100.00;98699.13;5279289;28;20028;-71
2023/03/14 06:26:28;;;;;;;7.13;3.30;;;;;;;8.64;100.00;98700.75;5288599;28;20130;-71
2023/03/14 06:29:03;;;;;;;8.30;3.70;;;;;;;8.65;100.00;98702.44;5280431;28;20042;-70
2023/03/14 06:31:34;;;;;;;8.50;3.72;;;;;;;8.63;100.00;98705.25;5281645;28;20036;-71
2023/03/14 06:34:06;;;;;;;7.25;3.65;;;;;;;8.66;100.00;98711.25;5288777;28;20067;-71
2023/03/14 06:36:37;;;;;;;8.85;4.05;;;;;;;8.69;100.00;98709.09;5296039;28;20029;-71
2023/03/14 06:39:08;;;;;;;7.60;3.70;;;;;;;8.69;100.00;98717.09;5290619;28;20119;-71
2023/03/14 06:41:39;;;;;;;7.45;3.92;;;;;;;8.71;100.00;98722.25;5293413;28;20024;-70
2023/03/14 06:44:11;;;;;;;10.75;4.43;;;;;;;8.74;100.00;98724.56;5283792;28;20042;-70
2023/03/14 06:46:42;;;;;;;9.00;3.95;;;;;;;8.72;100.00;98727.38;5293067;28;20604;-72
2023/03/14 06:49:13;;;;;;;7.57;3.90;;;;;;;8.73;100.00;98717.59;5284295;28;20036;-70
2023/03/14 06:51:44;;;;;;;11.70;4.20;;;;;;;8.82;100.00;98722.81;5283809;28;20111;-70
2023/03/14 06:54:16;;;;;;;9.23;4.32;;;;;;;8.82;100.00;98725.47;5284845;28;20386;-71
2023/03/14 06:56:47;;;;;;;7.95;3.95;;;;;;;8.90;100.00;98726.47;5285529;28;20042;-70
2023/03/14 06:59:18;;;;;;;8.70;3.95;;;;;;;8.93;100.00;98728.81;5287296;28;20028;-70
2023/03/14 07:01:50;;;;;;;7.72;4.20;;;;;;;8.96;100.00;98737.31;5288756;28;20587;-70
2023/03/14 07:04:21;;;;;;;9.77;4.25;;;;;;;9.01;100.00;98732.38;5287491;28;20028;-70
2023/03/14 07:06:53;;;;;;;7.50;3.95;;;;;;;8.98;100.00;98727.34;5291025;28;20036;-69
2023/03/14 07:09:24;;;;;;;8.18;3.92;;;;;;;9.00;100.00;98751.13;5288833;28;20168;-69
2023/03/14 07:11:55;;;;;;;7.90;4.05;;;;;;;8.97;100.00;98736.31;5297739;28;20035;-68
2023/03/14 07:14:27;;;;;;;9.85;4.25;;;;;;;8.97;100.00;98746.13;5292415;28;20032;-69
2023/03/14 07:16:58;;;;;;;9.63;4.50;;;;;;;8.92;100.00;98745.78;5288557;28;20036;-68
2023/03/14 07:19:29;;;;;;;9.50;4.13;;;;;;;8.94;100.00;98762.41;5287973;28;20073;-68
2023/03/14 07:22:00;;;;;;;7.55;3.90;;;;;;;8.95;100.00;98780.03;5285509;28;20029;-68
2023/03/14 07:24:32;;;;;;;8.27;4.30;;;;;;;8.90;100.00;98767.22;5292974;28;20042;-68
2023/03/14 07:27:03;;;;;;;9.15;4.07;;;;;;;8.89;100.00;98793.97;5290361;28;20048;-68
2023/03/14 07:29:34;;;;;;;7.45;3.80;;;;;;;8.83;100.00;98852.09;5292740;28;20031;-68
2023/03/14 07:32:06;;;;;;;4.78;1.70;;;;;;;8.53;100.00;98871.94;5280850;28;20032;-68
2023/03/14 07:34:37;;;;;;;2.67;1.15;;;;;;;8.30;100.00;98879.53;5281423;28;20488;-67
2023/03/14 07:37:08;;;;;;;2.70;1.00;;;;;;;8.01;100.00;98882.38;5286165;28;20027;-67
2023/03/14 07:39:40;;;;;;;3.28;1.10;;;;;;;7.83;100.00;98883.19;5287602;28;20401;-68
2023/03/14 07:42:11;;;;;;;5.07;1.20;;;;;;;7.73;100.00;98897.47;5296894;28;20432;-68
2023/03/14 07:44:42;;;;;;;5.25;1.17;;;;;;;7.54;100.00;98911.72;5282270;28;20394;-67
2023/03/14 07:47:14;;;;;;;2.72;0.75;;;;;;;7.41;100.00;98914.69;5282779;28;20350;-67
2023/03/14 07:49:45;;;;;;;2.55;0.65;;;;;;;7.33;100.00;98920.69;5286697;28;20050;-66
2023/03/14 07:52:16;;;;;;;3.38;0.70;;;;;;;7.21;100.00;98943.91;5284550;28;20032;-67
2023/03/14 07:54:47;;;;;;;2.25;0.70;;;;;;;7.13;100.00;98948.25;5286998;28;20032;-66
2023/03/14 07:57:19;;;;;;;2.63;0.70;;;;;;;7.04;100.00;98963.19;5288982;28;20027;-66
2023/03/14 07:59:50;;;;;;;4.25;1.17;;;;;;;7.00;100.00;98964.44;5287182;28;20032;-67
2023/03/14 08:02:23;;;;;;;3.42;1.42;;;;;;;6.98;100.00;98982.31;5281322;28;20032;-67
2023/03/14 08:04:55;;;;;;;6.00;2.05;;;;;;;6.94;100.00;98979.13;5284026;28;20046;-67
2023/03/14 08:07:26;;;;;;;6.43;2.47;;;;;;;6.94;100.00;98988.88;5282924;28;21221;-67
2023/03/14 08:09:57;;;;;;;7.97;3.58;;;;;;;6.94;100.00;98991.53;5279179;28;20036;-67
2023/03/14 08:12:28;;;;;;;5.70;3.67;;;;;;;6.97;100.00;98999.22;5283526;28;20032;-66
2023/03/14 08:15:00;;;;;;;5.22;3.40;;;;;;;6.99;100.00;99011.34;5286521;28;20032;-66
2023/03/14 08:17:31;;;;;;;5.55;3.05;;;;;;;6.95;100.00;99025.03;5291436;28;20076;-67
2023/03/14 08:20:06;;;;;;;5.97;1.98;;;;;;;6.89;100.00;99036.19;5286419;28;20024;-67
2023/03/14 08:22:38;;;;;;;3.20;1.80;;;;;;;6.85;100.00;99052.34;5288312;28;20031;-67
2023/03/14 08:25:10;;;;;;;4.68;1.42;;;;;;;6.80;100.00;99056.41;5287590;28;20036;-67
2023/03/14 08:27:42;;;;;;;2.90;1.13;;;;;;;6.76;100.00;99061.13;5292789;28;20433;-67
2023/03/14 08:30:15;;;;;;;3.70;1.42;;;;;;;6.75;100.00;99078.03;5279691;28;20032;-68
2023/03/14 08:32:46;;;;;;;4.78;1.10;;;;;;;6.73;100.00;99082.63;5277894;28;20051;-66
2023/03/14 08:35:18;;;;;;;3.05;1.15;;;;;;;6.76;100.00;99092.94;5279528;28;20032;-68
2023/03/14 08:37:49;;;;;;;3.65;1.05;;;;;;;6.76;100.00;99097.41;5288537;28;20043;-67
2023/03/14 08:40:21;;;;;;;5.53;1.33;;;;;;;6.76;100.00;99111.50;5278779;28;20028;-67
2023/03/14 08:42:52;;;;;;;5.20;1.60;;;;;;;6.77;100.00;99118.47;5292424;28;20039;-67
2023/03/14 08:45:24;;;;;;;5.63;1.60;;;;;;;6.77;100.00;99130.88;5293989;28;20081;-67
2023/03/14 08:47:57;;;;;;;8.57;2.42;;;;;;;6.74;100.00;99141.75;5291495;28;20028;-67
2023/03/14 08:50:28;;;;;;;5.95;3.15;;;;;;;6.72;100.00;99141.91;5291983;28;20025;-67
2023/03/14 08:53:00;;;;;;;7.35;3.20;;;;;;;6.75;100.00;99149.59;5285739;28;20051;-67
2023/03/14 08:55:31;;;;;;;8.20;2.90;;;;;;;6.73;100.00;99151.53;5288379;28;20440;-67
2023/03/14 08:58:03;;;;;;;4.70;2.40;;;;;;;6.76;100.00;99159.19;5289896;28;20478;-67
2023/03/14 09:00:34;;;;;;;5.38;2.60;;;;;;;6.80;100.00;99173.84;5295507;28;20060;-67
2023/03/14 09:03:05;;;;;;;5.72;3.08;;;;;;;6.81;100.00;99177.38;5298349;28;20500;-67
2023/03/14 09:05:37;;;;;;;7.38;3.10;;;;;;;6.84;100.00;99183.22;5290793;28;20126;-67
2023/03/14 09:08:08;;;;;;;7.75;3.10;;;;;;;6.86;100.00;99196.34;5289132;28;20024;-67
2023/03/14 09:10:39;;;;;;;6.45;3.70;;;;;;;6.89;100.00;99204.03;5292279;28;20031;-67
2023/03/14 09:13:11;;;;;;;7.93;2.80;;;;;;;6.91;100.00;99212.69;5287717;28;20374;-67
2023/03/14 09:15:42;;;;;;;4.95;2.60;;;;;;;6.96;100.00;99223.75;5292036;28;20431;-67
2023/03/14 09:18:13;;;;;;;6.43;2.53;;;;;;;6.99;100.00;99230.59;5300236;28;20516;-67
2023/03/14 09:20:44;;;;;;;6.50;2.45;;;;;;;7.05;100.00;99230.88;5286129;28;20230;-67
2023/03/14 09:23:16;;;;;;;6.57;2.83;;;;;;;7.16;100.00;99248.50;5289319;28;20385;-68
2023/03/14 09:25:47;;;;;;;5.80;2.30;;;;;;;7.20;100.00;99257.84;5288111;28;20043;-68
2023/03/14 09:28:18;;;;;;;5.75;2.20;;;;;;;7.19;100.00;99266.81;5294081;28;20661;-67
2023/03/14 09:30:50;;;;;;;5.82;3.38;;;;;;;7.16;100.00;99279.50;5291744;28;20408;-67
2023/03/14 09:33:21;;;;;;;5.65;2.40;;;;;;;7.12;100.00;99286.06;5292078;28;20588;-68
2023/03/14 09:35:52;;;;;;;3.67;1.50;;;;;;;6.95;100.00;99288.34;5298975;28;20028;-67
2023/03/14 09:38:24;;;;;;;4.25;1.27;;;;;;;6.84;100.00;99310.47;5288824;28;20439;-67
2023/03/14 09:40:58;;;;;;;2.00;0.60;;;;;;;6.70;100.00;99347.09;5294507;28;20869;-67
2023/03/14 09:43:32;;;;;;;2.00;0.63;;;;;;;6.46;100.00;99359.63;5290509;28;20028;-67
2023/03/14 09:46:04;;;;;;;2.90;0.60;;;;;;;6.29;100.00;99360.19;5286522;28;20027;-67
2023/03/14 09:48:36;;;;;;;4.38;0.60;;;;;;;6.22;100.00;99385.47;5292976;28;20508;-67
2023/03/14 09:51:14;;;;;;;1.90;0.40;;;;;;;6.10;100.00;99408.50;5288799;28;20064;-66
2023/03/14 09:53:48;;;;;;;1.50;0.20;;;;;;;5.86;100.00;99416.56;5290385;28;20064;-67
2023/03/14 09:56:24;;;;;;;2.38;0.30;;;;;;;5.77;100.00;99423.47;5292148;28;20289;-80
2023/03/14 09:58:58;;;;;;;1.65;0.40;;;;;;;5.73;100.00;99431.75;5296379;28;20060;-80
2023/03/14 10:01:31;;;;;;;;;;;;;;;5.89;100.00;99448.94;5291777;28;20029;-80
2023/03/14 10:04:10;;;;;;;3.60;0.40;;;;;;;5.69;100.00;99465.53;5294587;28;19920;-70
2023/03/14 10:06:41;;;;;;;2.88;0.77;;;;;;;5.73;100.00;99464.34;5286586;28;20031;-70
2023/03/14 10:09:25;;;;;;;5.53;0.50;;;;;;;5.80;100.00;99480.59;5287691;28;20028;-70
2023/03/14 10:11:59;;;;;;;4.88;1.55;;;;;;;5.90;100.00;99497.41;5290093;28;20100;-70
2023/03/14 10:14:44;;;;;;;4.68;0.90;;;;;;;5.96;100.00;99501.44;5287451;28;20029;-70
2023/03/14 10:17:16;;;;;;;;;;;;;;;6.03;100.00;99515.88;5294680;28;20057;-71
2023/03/14 10:19:52;;;;;;;6.05;1.33;;;;;;;6.11;100.00;99533.78;5290825;28;20296;-70
2023/03/14 10:22:27;;;;;;;4.35;0.70;;;;;;;6.14;100.00;99536.22;5291253;28;20416;-70
2023/03/14 10:25:07;;;;;;;7.75;1.33;;;;;;;6.18;100.00;99550.91;5289491;28;20077;-71
2023/03/14 10:27:38;;;;;;;5.35;0.90;;;;;;;6.17;100.00;99552.69;5288140;28;20040;-71
2023/03/14 10:30:29;;;;;;;4.32;0.90;;;;;;;6.22;100.00;99570.88;5292553;28;20039;-71
2023/03/14 10:33:22;;;;;;;6.03;1.15;;;;;;;6.24;100.00;99588.31;5284726;28;21377;-70
2023/03/14 10:35:56;;;;;;;7.88;1.38;;;;;;;6.29;100.00;99601.22;5285583;28;20051;-71
2023/03/14 10:38:34;;;;;;;5.88;1.20;;;;;;;6.30;100.00;99602.88;5286185;28;20124;-70
2023/03/14 10:41:25;;;;;;;9.98;1.55;;;;;;;6.40;100.00;99613.59;5294974;28;20032;-71
2023/03/14 10:43:59;;;;;;;9.35;1.60;;;;;;;6.44;100.00;99625.63;5287523;28;20043;-71
2023/03/14 10:46:33;;;;;;;9.13;1.83;;;;;;;6.43;100.00;99635.41;5288748;28;20056;-70
2023/03/14 10:49:06;;;;;;;7.82;1.73;;;;;;;6.42;100.00;99639.03;5290478;28;20027;-71
2023/03/14 10:51:37;;;;;;;10.75;1.60;;;;;;;6.35;100.00;99650.19;5283162;28;20490;-71
2023/03/14 10:54:21;;;;;;;11.80;2.97;;;;;;;6.35;100.00;99669.59;5292678;28;20039;-70
2023/03/14 10:57:01;;;;;;;10.27;2.20;;;;;;;6.15;100.00;99683.53;5301800;28;20057;-71
2023/03/14 10:59:38;;;;;;;12.40;1.88;;;;;;;5.98;100.00;99695.41;5283004;28;20131;-71
2023/03/14 11:02:36;;;;;;;11.63;1.80;;;;;;;5.86;100.00;99705.09;5282045;28;20147;-71
2023/03/14 11:05:28;;;;;;;11.75;2.25;;;;;;;5.70;100.00;99714.19;5280900;28;20390;-71
2023/03/14 11:08:07;;;;;;;8.93;1.80;;;;;;;5.63;100.00;99718.25;5286037;28;20042;-70
2023/03/14 11:10:42;;;;;;;12.18;2.05;;;;;;;5.60;100.00;99731.72;5290217;28;20029;-70
2023/03/14 11:13:26;;;;;;;11.02;2.20;;;;;;;5.57;100.00;99744.31;5282282;28;20068;-70
2023/03/14 11:16:07;;;;;;;15.40;3.35;;;;;;;5.57;100.00;99746.97;5285533;28;20036;-70
2023/03/14 11:19:12;;;;;;;13.35;2.90;;;;;;;5.60;100.00;99752.88;5288397;28;20032;-70
2023/03/14 11:22:10;;;;;;;10.30;1.88;;;;;;;5.70;100.00;99756.53;5286020;28;20492;-70
2023/03/14 11:25:27;;;;;;;12.27;2.05;;;;;;;5.82;100.00;99777.75;5283257;28;20028;-69
2023/03/14 11:28:44;;;;;;;10.15;2.03;;;;;;;5.86;100.00;99780.06;5270432;28;20559;-69
2023/03/14 11:31:26;;;;;;;9.93;1.95;;;;;;;5.84;100.00;99786.44;5293144;28;20043;-69
2023/03/14 11:34:21;;;;;;;14.52;2.50;;;;;;;5.83;100.00;99804.13;5286667;28;20057;-69
2023/03/14 11:37:06;;;;;;;11.18;2.33;;;;;;;5.82;100.00;99828.06;5295841;28;20047;-70
2023/03/14 11:39:40;;;;;;;11.68;2.35;;;;;;;5.75;100.00;99848.81;5279850;28;20075;-71
2023/03/14 11:42:15;;;;;;;11.97;1.73;;;;;;;5.51;100.00;99859.38;5294892;28;20103;-72
2023/03/14 11:44:48;;;;;;;12.13;2.00;;;;;;;5.27;100.00;99872.53;5291937;28;20059;-71
2023/03/14 11:47:30;;;;;;;9.73;1.87;;;;;;;5.15;100.00;99868.09;5283370;28;20039;-70
2023/03/14 11:50:12;;;;;;;13.52;1.77;;;;;;;5.14;100.00;99851.41;5279768;28;20493;-69
2023/03/14 11:52:56;;;;;;;12.05;2.15;;;;;;;5.17;100.00;99861.75;5286279;28;20083;-69
2023/03/14 11:55:33;;;;;;;13.45;2.60;;;;;;;5.22;100.00;99880.78;5280928;28;20035;-69
2023/03/14 11:58:16;;;;;;;8.93;2.25;;;;;;;5.25;100.00;99885.00;5293131;28;20393;-69
2023/03/14 12:00:50;;;;;;;17.50;3.30;;;;;;;5.34;100.00;99884.38;5296033;28;20034;-68
2023/03/14 12:03:32;;;;;;;;;;;;;;;5.39;100.00;99890.19;5291347;28;20028;-69